Time;durP1;ratioP1;P1;durP2;ratioP2;P2;SDS_P1;SDS_P2;PMS_P1;PMS_P2;Temp;Humidity;BMP_temperature;BMP_pressure;BME280_temperature;BME280_humidity;BME280_pressure;Samples;Min_cycle;Max_cycle;Signal;HPM_P1;HPM_P2
2022/04/25 00:00:42;;;;;;;;;;;9.10;99.90;;;;;;5073373;28;20287;-65
2022/04/25 00:03:08;;;;;;;;;;;9.00;99.90;;;;;;5073280;28;19920;-64
2022/04/25 00:05:33;;;;;;;;;;;9.00;99.90;;;;;;5074601;28;19921;-65
2022/04/25 00:07:59;;;;;;;;;;;9.00;99.90;;;;;;5074826;28;20278;-65
2022/04/25 00:10:24;;;;;;;;;;;9.00;99.90;;;;;;5074279;28;20332;-65
2022/04/25 00:12:50;;;;;;;;;;;9.10;99.90;;;;;;5074803;28;20327;-65
2022/04/25 00:15:15;;;;;;;;;;;9.10;99.90;;;;;;5074593;28;20357;-65
2022/04/25 00:17:41;;;;;;;;;;;9.10;99.90;;;;;;5074658;28;19999;-65
2022/04/25 00:20:08;;;;;;;;;;;9.10;99.90;;;;;;5074429;28;19917;-64
2022/04/25 00:22:34;;;;;;;;;;;9.10;99.90;;;;;;5074197;28;20393;-64
2022/04/25 00:25:00;;;;;;;;;;;9.10;99.90;;;;;;5074251;28;19920;-64
2022/04/25 00:27:28;;;;;;;;;;;9.10;99.90;;;;;;5074095;28;19916;-65
2022/04/25 00:29:54;;;;;;;;;;;9.10;99.90;;;;;;5073906;28;19917;-65
2022/04/25 00:32:19;;;;;;;;;;;9.10;99.90;;;;;;5074261;28;19939;-65
2022/04/25 00:34:45;;;;;;;;;;;9.10;99.90;;;;;;5073888;28;19969;-65
2022/04/25 00:37:10;;;;;;;;;;;9.10;99.90;;;;;;5073868;28;19974;-65
2022/04/25 00:39:36;;;;;;;;;;;9.20;99.90;;;;;;5074009;28;19946;-64
2022/04/25 00:42:01;;;;;;;;;;;9.20;99.90;;;;;;5074034;28;20269;-64
2022/04/25 00:44:27;;;;;;;;;;;9.10;99.90;;;;;;5074291;28;19920;-64
2022/04/25 00:46:53;;;;;;;;;;;9.20;99.90;;;;;;5074083;28;19916;-64
2022/04/25 00:49:18;;;;;;;;;;;9.20;99.90;;;;;;5106809;28;19969;-64
2022/04/25 00:51:45;;;;;;;;;;;9.20;99.90;;;;;;5074167;28;20363;-64
2022/04/25 00:54:10;;;;;;;;;;;9.20;99.90;;;;;;5073743;28;19924;-64
2022/04/25 00:56:36;;;;;;;;;;;9.30;99.90;;;;;;5073749;28;19971;-64
2022/04/25 00:59:03;;;;;;;;;;;9.20;99.90;;;;;;5073745;28;19916;-64
2022/04/25 01:01:29;;;;;;;;;;;9.20;99.90;;;;;;5073747;28;19927;-64
2022/04/25 01:03:54;;;;;;;;;;;9.20;99.90;;;;;;5073719;28;19916;-64
2022/04/25 01:06:20;;;;;;;;;;;9.20;99.90;;;;;;5073544;28;19916;-64
2022/04/25 01:08:46;;;;;;;;;;;9.20;99.90;;;;;;5073743;28;19920;-64
2022/04/25 01:11:12;;;;;;;;;;;9.20;99.90;;;;;;5073385;28;20374;-64
2022/04/25 01:13:38;;;;;;;;;;;9.20;99.90;;;;;;5073803;28;19916;-64
2022/04/25 01:16:03;;;;;;;;;;;9.10;99.90;;;;;;5073627;28;19962;-65
2022/04/25 01:18:29;;;;;;;;;;;9.10;99.90;;;;;;5073044;28;20294;-64
2022/04/25 01:20:56;;;;;;;;;;;9.00;99.90;;;;;;5073429;28;19967;-64
2022/04/25 01:28:51;;;;;;;;;;;9.00;99.90;;;;;;5072381;28;20011;-65
2022/04/25 01:31:17;;;;;;;;;;;9.10;99.90;;;;;;5073387;28;19916;-65
2022/04/25 01:33:42;;;;;;;;;;;9.00;99.90;;;;;;5073413;28;20329;-65
2022/04/25 01:36:07;;;;;;;;;;;9.10;99.90;;;;;;5072933;28;20359;-61
2022/04/25 01:38:33;;;;;;;;;;;9.20;99.90;;;;;;5072201;28;19916;-61
2022/04/25 01:40:59;;;;;;;;;;;9.20;99.90;;;;;;5072375;28;19920;-61
2022/04/25 01:43:25;;;;;;;;;;;9.10;99.90;;;;;;5070897;28;20007;-61
2022/04/25 01:45:50;;;;;;;;;;;9.10;99.90;;;;;;5072185;28;19970;-61
2022/04/25 01:48:16;;;;;;;;;;;9.10;99.90;;;;;;5071500;28;20223;-61
2022/04/25 01:50:42;;;;;;;;;;;9.00;99.90;;;;;;5072070;28;19959;-61
2022/04/25 01:53:07;;;;;;;;;;;9.00;99.90;;;;;;5072029;28;19917;-61
2022/04/25 01:55:33;;;;;;;;;;;8.90;99.90;;;;;;5087781;28;20283;-61
2022/04/25 01:57:58;;;;;;;;;;;9.20;99.90;;;;;;5072585;28;19950;-61
2022/04/25 02:00:24;;;;;;;;;;;8.90;99.90;;;;;;5072373;28;19917;-61
2022/04/25 02:02:49;;;;;;;;;;;8.90;99.90;;;;;;5071997;28;20297;-61
2022/04/25 02:05:15;;;;;;;;;;;8.90;99.90;;;;;;5071970;28;20298;-62
2022/04/25 02:07:40;;;;;;;;;;;8.90;99.90;;;;;;5071830;28;19916;-61
2022/04/25 02:10:06;;;;;;;;;;;8.80;99.90;;;;;;5071882;28;19922;-61
2022/04/25 02:12:32;;;;;;;;;;;8.90;99.90;;;;;;5072177;28;19960;-61
2022/04/25 02:14:57;;;;;;;;;;;8.90;99.90;;;;;;5072076;28;19922;-61
2022/04/25 02:17:23;;;;;;;;;;;8.90;99.90;;;;;;5072272;28;20389;-64
2022/04/25 02:19:48;;;;;;;;;;;8.80;99.90;;;;;;5073088;28;19923;-64
2022/04/25 02:22:16;;;;;;;;;;;8.90;99.90;;;;;;5073239;28;20278;-64
2022/04/25 02:24:41;;;;;;;;;;;8.80;99.90;;;;;;5071697;28;19920;-65
2022/04/25 02:27:07;;;;;;;;;;;8.70;99.90;;;;;;5073176;28;19923;-65
2022/04/25 02:29:34;;;;;;;;;;;8.60;99.90;;;;;;5072776;28;20264;-64
2022/04/25 02:32:00;;;;;;;;;;;9.10;99.90;;;;;;5072810;28;20355;-65
2022/04/25 02:34:26;;;;;;;;;;;8.70;99.90;;;;;;5088343;28;19969;-64
2022/04/25 02:36:51;;;;;;;;;;;8.80;99.90;;;;;;5072932;28;19916;-64
2022/04/25 02:39:17;;;;;;;;;;;8.80;99.90;;;;;;5073063;28;20003;-64
2022/04/25 02:41:43;;;;;;;;;;;8.70;99.90;;;;;;5073288;28;20409;-64
2022/04/25 02:44:09;;;;;;;;;;;8.80;99.90;;;;;;5072939;28;20382;-64
2022/04/25 02:46:34;;;;;;;;;;;8.80;99.90;;;;;;5072765;28;19923;-65
2022/04/25 02:49:00;;;;;;;;;;;8.80;99.90;;;;;;5072825;28;19922;-64
2022/04/25 02:51:25;;;;;;;;;;;8.90;99.90;;;;;;5104996;28;19916;-64
2022/04/25 02:53:51;;;;;;;;;;;8.80;99.90;;;;;;5072670;28;19916;-65
2022/04/25 02:56:16;;;;;;;;;;;8.90;99.90;;;;;;5072657;28;19916;-65
2022/04/25 02:58:42;;;;;;;;;;;8.80;99.90;;;;;;5072778;28;20309;-64
2022/04/25 03:01:08;;;;;;;;;;;8.80;99.90;;;;;;5076029;28;19930;-65
2022/04/25 03:03:35;;;;;;;;;;;8.80;99.90;;;;;;5076126;28;19916;-64
2022/04/25 03:06:02;;;;;;;;;;;8.80;99.90;;;;;;5075948;28;19972;-65
2022/04/25 03:08:27;;;;;;;;;;;8.80;99.90;;;;;;5075840;28;19916;-65
2022/04/25 03:10:54;;;;;;;;;;;8.80;99.90;;;;;;5076399;28;19965;-65
2022/04/25 03:13:20;;;;;;;;;;;9.00;99.90;;;;;;5076166;28;19916;-65
2022/04/25 03:15:47;;;;;;;;;;;8.80;99.90;;;;;;5075854;28;20003;-65
2022/04/25 03:18:13;;;;;;;;;;;8.80;99.90;;;;;;5076190;28;19916;-64
2022/04/25 03:20:41;;;;;;;;;;;8.70;99.90;;;;;;5075646;28;19920;-64
2022/04/25 03:23:07;;;;;;;;;;;8.80;99.90;;;;;;5075487;28;19924;-65
2022/04/25 03:25:33;;;;;;;;;;;8.80;99.90;;;;;;5075722;28;19921;-64
2022/04/25 03:27:59;;;;;;;;;;;8.80;99.90;;;;;;5075984;28;19960;-65
2022/04/25 03:30:24;;;;;;;;;;;8.80;99.90;;;;;;5074362;28;19923;-64
2022/04/25 03:32:50;;;;;;;;;;;8.80;99.90;;;;;;5075802;28;19920;-64
2022/04/25 03:35:17;;;;;;;;;;;8.80;99.90;;;;;;5075690;28;19923;-65
2022/04/25 03:37:44;;;;;;;;;;;8.70;99.90;;;;;;5075858;28;20383;-64
2022/04/25 03:40:10;;;;;;;;;;;8.70;99.90;;;;;;5075512;28;19920;-65
2022/04/25 03:42:39;;;;;;;;;;;8.70;99.90;;;;;;5075711;28;19960;-64
2022/04/25 03:45:05;;;;;;;;;;;8.80;99.90;;;;;;5075039;28;20370;-64
2022/04/25 03:47:32;;;;;;;;;;;8.70;99.90;;;;;;5075476;28;19923;-65
2022/04/25 03:49:57;;;;;;;;;;;8.70;99.90;;;;;;5075648;28;19916;-65
2022/04/25 03:52:23;;;;;;;;;;;8.70;99.90;;;;;;5075371;28;19965;-64
2022/04/25 03:57:33;;;;;;;;;;;8.60;99.90;;;;;;5074895;28;20378;-65
2022/04/25 03:59:58;;;;;;;;;;;8.60;99.90;;;;;;5075278;28;19983;-65
2022/04/25 04:02:24;;;;;;;;;;;8.50;99.90;;;;;;5075107;28;19916;-64
2022/04/25 04:04:49;;;;;;;;;;;8.40;99.90;;;;;;5074884;28;20282;-64
2022/04/25 04:07:15;;;;;;;;;;;8.40;99.90;;;;;;5074767;28;19974;-64
2022/04/25 04:09:50;;;;;;;;;;;8.40;99.90;;;;;;5074851;28;19916;-64
2022/04/25 04:12:16;;;;;;;;;;;8.40;99.90;;;;;;5074130;28;19916;-65
2022/04/25 04:14:42;;;;;;;;;;;8.50;99.90;;;;;;5075190;28;19924;-65
2022/04/25 04:17:08;;;;;;;;;;;8.50;99.90;;;;;;5074612;28;19916;-65
2022/04/25 04:19:34;;;;;;;;;;;8.40;99.90;;;;;;5074612;28;19923;-65
2022/04/25 04:22:02;;;;;;;;;;;8.40;99.90;;;;;;5073771;28;19928;-65
2022/04/25 04:24:28;;;;;;;;;;;8.40;99.90;;;;;;5074765;28;19921;-65
2022/04/25 04:26:55;;;;;;;;;;;8.30;99.90;;;;;;5074661;28;19916;-64
2022/04/25 04:29:21;;;;;;;;;;;8.30;99.90;;;;;;5074523;28;19931;-65
2022/04/25 04:31:46;;;;;;;;;;;8.30;99.90;;;;;;5074740;28;19916;-65
2022/04/25 04:34:12;;;;;;;;;;;8.30;99.90;;;;;;5074517;28;19995;-65
2022/04/25 04:36:38;;;;;;;;;;;8.40;99.90;;;;;;5107268;28;19923;-64
2022/04/25 04:39:04;;;;;;;;;;;8.30;99.90;;;;;;5074671;28;20332;-65
2022/04/25 04:41:29;;;;;;;;;;;8.30;99.90;;;;;;5074539;28;19916;-64
2022/04/25 04:43:58;;;;;;;;;;;8.30;99.90;;;;;;5074351;28;19939;-65
2022/04/25 04:46:26;;;;;;;;;;;8.30;99.90;;;;;;5074568;28;19916;-64
2022/04/25 04:48:52;;;;;;;;;;;8.30;99.90;;;;;;5074542;28;19917;-65
2022/04/25 04:51:17;;;;;;;;;;;8.30;99.90;;;;;;5074303;28;19917;-64
2022/04/25 04:53:43;;;;;;;;;;;8.30;99.90;;;;;;5074410;28;20406;-64
2022/04/25 04:56:09;;;;;;;;;;;8.30;99.90;;;;;;5073998;28;19928;-64
2022/04/25 04:58:34;;;;;;;;;;;8.30;99.90;;;;;;5074345;28;19927;-64
2022/04/25 05:01:01;;;;;;;;;;;8.30;99.90;;;;;;5074412;28;19916;-64
2022/04/25 05:03:27;;;;;;;;;;;8.30;99.90;;;;;;5074064;28;20017;-64
2022/04/25 05:05:53;;;;;;;;;;;8.20;99.90;;;;;;5073449;28;20377;-64
2022/04/25 05:08:19;;;;;;;;;;;8.30;99.90;;;;;;5073620;28;19924;-65
2022/04/25 05:10:44;;;;;;;;;;;8.30;99.90;;;;;;5074073;28;19916;-64
2022/04/25 05:13:10;;;;;;;;;;;8.30;99.90;;;;;;5073954;28;19922;-64
2022/04/25 05:15:38;;;;;;;;;;;8.30;99.90;;;;;;5074121;28;19917;-64
2022/04/25 05:18:04;;;;;;;;;;;8.30;99.90;;;;;;5073760;28;19916;-64
2022/04/25 05:20:29;;;;;;;;;;;8.40;99.90;;;;;;5073959;28;19916;-65
2022/04/25 05:22:56;;;;;;;;;;;8.40;99.90;;;;;;5073671;28;20389;-64
2022/04/25 05:25:22;;;;;;;;;;;8.40;99.90;;;;;;5073629;28;19920;-64
2022/04/25 05:27:49;;;;;;;;;;;8.50;99.90;;;;;;5074105;28;19916;-64
2022/04/25 05:30:15;;;;;;;;;;;8.50;99.90;;;;;;5072560;28;19916;-64
2022/04/25 05:32:41;;;;;;;;;;;8.50;99.90;;;;;;5073718;28;19916;-64
2022/04/25 05:35:06;;;;;;;;;;;8.40;99.90;;;;;;5073577;28;20389;-64
2022/04/25 05:37:32;;;;;;;;;;;8.40;99.90;;;;;;5073422;28;19966;-64
2022/04/25 05:39:57;;;;;;;;;;;8.40;99.90;;;;;;5073739;28;19924;-64
2022/04/25 05:42:23;;;;;;;;;;;8.40;99.90;;;;;;5073317;28;19916;-64
2022/04/25 05:44:49;;;;;;;;;;;8.40;99.90;;;;;;5073686;28;19924;-64
2022/04/25 05:47:14;;;;;;;;;;;8.40;99.90;;;;;;5072461;28;19920;-64
2022/04/25 05:52:24;;;;;;;;;;;8.40;99.90;;;;;;5073601;28;19916;-65
2022/04/25 05:54:49;;;;;;;;;;;8.40;99.90;;;;;;5106076;28;19927;-65
2022/04/25 05:57:15;;;;;;;;;;;8.40;99.90;;;;;;5073755;28;19922;-64
2022/04/25 05:59:40;;;;;;;;;;;8.50;99.90;;;;;;5073508;28;20274;-64
2022/04/25 06:02:07;;;;;;;;;;;8.40;99.90;;;;;;5073298;28;19924;-64
2022/04/25 06:04:32;;;;;;;;;;;8.40;99.90;;;;;;5071994;28;19956;-65
2022/04/25 06:06:59;;;;;;;;;;;8.40;99.90;;;;;;5071857;28;20424;-64
2022/04/25 06:09:26;;;;;;;;;;;8.60;99.90;;;;;;5072210;28;20007;-64
2022/04/25 06:11:52;;;;;;;;;;;8.50;99.90;;;;;;5072207;28;19916;-65
2022/04/25 06:14:18;;;;;;;;;;;8.50;99.90;;;;;;5072971;28;20490;-64
2022/04/25 06:16:43;;;;;;;;;;;8.60;99.90;;;;;;5073124;28;19943;-64
2022/04/25 06:19:10;;;;;;;;;;;8.60;99.90;;;;;;5072947;28;19916;-64
2022/04/25 06:21:35;;;;;;;;;;;8.60;99.90;;;;;;5073446;28;19916;-65
2022/04/25 06:24:01;;;;;;;;;;;8.70;99.90;;;;;;5072953;28;19931;-65
2022/04/25 06:26:28;;;;;;;;;;;8.60;99.90;;;;;;5073021;28;20279;-65
2022/04/25 06:28:54;;;;;;;;;;;8.70;99.90;;;;;;5073281;28;19924;-65
2022/04/25 06:31:22;;;;;;;;;;;8.90;99.90;;;;;;5073268;28;19974;-64
2022/04/25 06:33:48;;;;;;;;;;;8.70;99.90;;;;;;5073683;28;19928;-64
2022/04/25 06:36:13;;;;;;;;;;;8.70;99.90;;;;;;5075927;28;19965;-64
2022/04/25 06:38:39;;;;;;;;;;;8.60;99.90;;;;;;5076845;28;20007;-64
2022/04/25 06:41:04;;;;;;;;;;;8.60;99.90;;;;;;5076767;28;20378;-65
2022/04/25 06:43:31;;;;;;;;;;;8.60;99.90;;;;;;5076319;28;20335;-63
2022/04/25 06:45:57;;;;;;;;;;;8.60;99.90;;;;;;5075929;28;19920;-63
2022/04/25 06:48:23;;;;;;;;;;;8.60;99.90;;;;;;5076381;28;20006;-64
2022/04/25 06:50:49;;;;;;;;;;;8.60;99.90;;;;;;5075227;28;19920;-65
2022/04/25 06:53:14;;;;;;;;;;;8.60;99.90;;;;;;5109174;28;19916;-63
2022/04/25 06:55:40;;;;;;;;;;;8.60;99.90;;;;;;5075952;28;19928;-64
2022/04/25 06:58:06;;;;;;;;;;;8.50;99.90;;;;;;5076529;28;19917;-64
2022/04/25 07:00:32;;;;;;;;;;;8.80;99.90;;;;;;5076488;28;20293;-64
2022/04/25 07:02:59;;;;;;;;;;;8.70;99.90;;;;;;5076472;28;19979;-63
2022/04/25 07:05:24;;;;;;;;;;;8.70;99.90;;;;;;5076273;28;19920;-64
2022/04/25 07:07:50;;;;;;;;;;;8.70;99.90;;;;;;5076515;28;20268;-64
2022/04/25 07:10:16;;;;;;;;;;;8.70;99.90;;;;;;5075754;28;20398;-65
2022/04/25 07:12:42;;;;;;;;;;;8.80;99.90;;;;;;5075993;28;19971;-64
2022/04/25 07:15:08;;;;;;;;;;;8.70;99.90;;;;;;5076360;28;19916;-65
2022/04/25 07:17:34;;;;;;;;;;;8.70;99.90;;;;;;5075950;28;19916;-65
2022/04/25 07:19:59;;;;;;;;;;;8.70;99.90;;;;;;5091826;28;19935;-65
2022/04/25 07:30:38;;;;;;;;;;;8.90;99.90;;;;;;5076170;28;19974;-64
2022/04/25 07:33:03;;;;;;;;;;;9.00;99.90;;;;;;5075562;28;20359;-64
2022/04/25 07:35:29;;;;;;;;;;;9.00;99.90;;;;;;5075691;28;19920;-64
2022/04/25 07:37:55;;;;;;;;;;;9.00;99.90;;;;;;5075793;28;20351;-63
2022/04/25 07:40:21;;;;;;;;;;;8.90;99.90;;;;;;5075293;28;19916;-64
2022/04/25 07:42:47;;;;;;;;;;;8.90;99.90;;;;;;5074437;28;19968;-66
2022/04/25 07:45:12;;;;;;;;;;;8.90;99.90;;;;;;5074474;28;20389;-68
2022/04/25 07:47:42;;;;;;;;;;;8.90;99.90;;;;;;5075310;28;19977;-67
2022/04/25 07:50:09;;;;;;;;;;;9.00;99.90;;;;;;5075376;28;19916;-66
2022/04/25 07:52:34;;;;;;;;;;;9.00;99.90;;;;;;5075057;28;19922;-64
2022/04/25 07:55:00;;;;;;;;;;;9.10;99.90;;;;;;5075116;28;20410;-64
2022/04/25 07:57:25;;;;;;;;;;;9.10;99.90;;;;;;5074093;28;20229;-64
2022/04/25 07:59:51;;;;;;;;;;;9.10;99.90;;;;;;5073694;28;20285;-64
2022/04/25 08:02:20;;;;;;;;;;;9.20;99.90;;;;;;5074492;28;20286;-64
2022/04/25 08:04:45;;;;;;;;;;;9.00;99.90;;;;;;5074307;28;20358;-64
2022/04/25 08:07:11;;;;;;;;;;;9.00;99.90;;;;;;5074660;28;19923;-64
2022/04/25 08:09:37;;;;;;;;;;;9.10;99.90;;;;;;5074442;28;19923;-64
2022/04/25 08:20:15;;;;;;;;;;;9.20;99.90;;;;;;5074099;28;20378;-64
2022/04/25 08:22:40;;;;;;;;;;;9.30;99.90;;;;;;5074125;28;19959;-64
2022/04/25 08:25:07;;;;;;;;;;;9.20;99.90;;;;;;5074343;28;20007;-64
2022/04/25 08:27:33;;;;;;;;;;;9.20;99.90;;;;;;5074234;28;20332;-64
2022/04/25 08:29:59;;;;;;;;;;;9.30;99.90;;;;;;5074012;28;19991;-64
2022/04/25 08:32:25;;;;;;;;;;;9.40;99.90;;;;;;5074120;28;20085;-64
2022/04/25 08:34:51;;;;;;;;;;;9.50;99.90;;;;;;5073902;28;19977;-64
2022/04/25 08:37:16;;;;;;;;;;;9.60;99.90;;;;;;5073690;28;20456;-64
2022/04/25 08:39:42;;;;;;;;;;;9.70;99.90;;;;;;5073710;28;19917;-64
2022/04/25 08:42:09;;;;;;;;;;;9.60;99.90;;;;;;5073545;28;20002;-64
2022/04/25 08:44:34;;;;;;;;;;;9.70;99.90;;;;;;5073970;28;19980;-64
2022/04/25 08:47:01;;;;;;;;;;;9.70;99.90;;;;;;5073528;28;20382;-64
2022/04/25 08:49:27;;;;;;;;;;;9.90;99.90;;;;;;5072086;28;19923;-64
2022/04/25 08:51:58;;;;;;;;;;;9.90;99.90;;;;;;5073602;28;19916;-63
2022/04/25 08:54:29;;;;;;;;;;;9.80;99.90;;;;;;5073743;28;19928;-63
2022/04/25 08:56:55;;;;;;;;;;;9.80;99.90;;;;;;5073755;28;19923;-63
2022/04/25 08:59:25;;;;;;;;;;;9.90;99.90;;;;;;5073421;28;20355;-66
2022/04/25 09:01:50;;;;;;;;;;;10.10;99.90;;;;;;5073693;28;20379;-63
2022/04/25 09:04:17;;;;;;;;;;;10.20;99.90;;;;;;5073872;28;19963;-63
2022/04/25 09:06:42;;;;;;;;;;;10.10;99.90;;;;;;5073456;28;19924;-64
2022/04/25 09:09:08;;;;;;;;;;;10.20;99.90;;;;;;5073634;28;20282;-64
2022/04/25 09:14:17;;;;;;;;;;;10.20;99.90;;;;;;5072940;28;20334;-64
2022/04/25 09:16:44;;;;;;;;;;;10.40;99.90;;;;;;5073226;28;19955;-64
2022/04/25 09:19:10;;;;;;;;;;;10.40;99.90;;;;;;5072978;28;19916;-62
2022/04/25 09:21:40;;;;;;;;;;;10.50;99.90;;;;;;5073346;28;19920;-64
2022/04/25 09:24:24;;;;;;;;;;;10.50;99.90;;;;;;5073052;28;19923;-63
2022/04/25 09:26:51;;;;;;;;;;;10.50;99.90;;;;;;5072897;28;19916;-64
2022/04/25 09:29:25;;;;;;;;;;;10.50;99.90;;;;;;5073258;28;19916;-63
2022/04/25 09:31:51;;;;;;;;;;;10.50;99.90;;;;;;5072981;28;19923;-63
2022/04/25 09:34:59;;;;;;;;;;;10.70;99.90;;;;;;5072916;28;19917;-63
2022/04/25 09:37:02;;;;;;;;;;;10.60;99.90;;;;;;5072775;28;19916;-63
2022/04/25 09:39:30;;;;;;;;;;;10.60;99.90;;;;;;5073042;28;19923;-63
2022/04/25 09:41:56;;;;;;;;;;;10.70;99.90;;;;;;5072897;28;20434;-62
2022/04/25 09:44:23;;;;;;;;;;;10.70;99.90;;;;;;5073071;28;19920;-64
2022/04/25 09:46:49;;;;;;;;;;;10.90;99.90;;;;;;5072505;28;20366;-64
2022/04/25 09:49:20;;;;;;;;;;;10.90;99.90;;;;;;5072826;28;19916;-64
2022/04/25 09:52:01;;;;;;;;;;;10.90;99.90;;;;;;5073053;28;19966;-64
2022/04/25 09:54:27;;;;;;;;;;;11.00;99.90;;;;;;5072752;28;19920;-64
2022/04/25 09:56:52;;;;;;;;;;;11.10;99.90;;;;;;5072860;28;19930;-64
2022/04/25 09:59:25;;;;;;;;;;;11.20;99.90;;;;;;5072760;28;19917;-64
2022/04/25 10:02:04;;;;;;;;;;;11.20;99.90;;;;;;5072641;28;19916;-64
2022/04/25 10:04:32;;;;;;;;;;;11.30;99.90;;;;;;5072564;28;19985;-62
2022/04/25 10:07:02;;;;;;;;;;;11.30;99.90;;;;;;5072173;28;19923;-62
2022/04/25 10:09:28;;;;;;;;;;;11.50;99.90;;;;;;5073807;28;19916;-61
2022/04/25 10:11:57;;;;;;;;;;;11.70;99.90;;;;;;5074757;28;19917;-61
2022/04/25 10:14:22;;;;;;;;;;;11.80;99.90;;;;;;5076178;28;19924;-61
2022/04/25 10:16:48;;;;;;;;;;;12.00;99.90;;;;;;5075906;28;19916;-62
2022/04/25 10:19:14;;;;;;;;;;;12.50;99.90;;;;;;5075611;28;19956;-61
2022/04/25 10:21:40;;;;;;;;;;;13.00;99.90;;;;;;5075632;28;19917;-59
2022/04/25 10:24:06;;;;;;;;;;;12.90;99.90;;;;;;5076160;28;19926;-59
2022/04/25 10:26:32;;;;;;;;;;;12.90;99.90;;;;;;5076281;28;20047;-64
2022/04/25 10:28:59;;;;;;;;;;;12.70;99.90;;;;;;5076778;28;20011;-64
2022/04/25 10:31:27;;;;;;;;;;;12.70;99.90;;;;;;5076555;28;19984;-64
2022/04/25 10:33:54;;;;;;;;;;;12.70;99.90;;;;;;5076400;28;19927;-64
2022/04/25 10:36:41;;;;;;;;;;;12.60;99.90;;;;;;5076412;28;19920;-64
2022/04/25 10:39:12;;;;;;;;;;;12.60;99.90;;;;;;5076105;28;19916;-64
2022/04/25 10:44:24;;;;;;;;;;;12.50;99.90;;;;;;5075935;28;20268;-64
2022/04/25 10:47:05;;;;;;;;;;;12.50;99.90;;;;;;5076410;28;19994;-64
2022/04/25 10:49:34;;;;;;;;;;;12.60;99.90;;;;;;5075683;28;19998;-59
2022/04/25 10:52:00;;;;;;;;;;;12.50;99.90;;;;;;5075720;28;19969;-59
2022/04/25 10:54:29;;;;;;;;;;;12.60;99.90;;;;;;5075557;28;19927;-59
2022/04/25 10:57:21;;;;;;;;;;;12.60;99.90;;;;;;5075390;28;19923;-64
2022/04/25 10:59:47;;;;;;;;;;;12.70;99.90;;;;;;5073834;28;20022;-59
2022/04/25 11:02:30;;;;;;;;;;;12.80;99.90;;;;;;5075590;28;19916;-63
2022/04/25 11:05:11;;;;;;;;;;;12.70;99.90;;;;;;5075344;28;19966;-62
2022/04/25 11:07:37;;;;;;;;;;;12.80;99.90;;;;;;5073954;28;19920;-63
2022/04/25 11:10:04;;;;;;;;;;;12.80;99.90;;;;;;5075894;28;19923;-64
2022/04/25 11:12:48;;;;;;;;;;;12.80;99.90;;;;;;5073733;28;20007;-64
2022/04/25 11:15:33;;;;;;;;;;;12.80;99.90;;;;;;5075295;28;19916;-65
2022/04/25 11:18:18;;;;;;;;;;;12.90;99.90;;;;;;5075430;28;19924;-66
2022/04/25 11:20:54;;;;;;;;;;;13.00;99.90;;;;;;5075340;28;19932;-64
2022/04/25 11:23:23;;;;;;;;;;;13.20;99.90;;;;;;5075322;28;19927;-64
2022/04/25 11:25:49;;;;;;;;;;;13.20;99.90;;;;;;5075095;28;20362;-64
2022/04/25 11:28:14;;;;;;;;;;;13.30;99.90;;;;;;5075481;28;20007;-64
2022/04/25 11:30:40;;;;;;;;;;;13.40;99.90;;;;;;5075592;28;19956;-64
2022/04/25 11:33:08;;;;;;;;;;;13.40;99.90;;;;;;5075459;28;20377;-64
2022/04/25 11:35:33;;;;;;;;;;;13.50;99.90;;;;;;5075577;28;19917;-64
2022/04/25 11:37:59;;;;;;;;;;;13.50;99.90;;;;;;5075522;28;20006;-63
2022/04/25 11:40:26;;;;;;;;;;;13.60;99.90;;;;;;5075517;28;19916;-63
2022/04/25 11:42:52;;;;;;;;;;;13.60;99.90;;;;;;5074945;28;19920;-64
2022/04/25 11:45:19;;;;;;;;;;;13.60;99.90;;;;;;5075326;28;19920;-63
2022/04/25 11:47:44;;;;;;;;;;;13.70;99.90;;;;;;5075407;28;19962;-64
2022/04/25 11:50:13;;;;;;;;;;;13.80;99.90;;;;;;5074854;28;20357;-64
2022/04/25 11:52:45;;;;;;;;;;;13.80;99.90;;;;;;5074550;28;19920;-64
2022/04/25 11:55:11;;;;;;;;;;;13.90;99.90;;;;;;5073344;28;19927;-65
2022/04/25 11:57:40;;;;;;;;;;;13.80;99.90;;;;;;5074487;28;19921;-64
2022/04/25 12:00:16;;;;;;;;;;;13.90;99.90;;;;;;5074170;28;20424;-64
2022/04/25 12:02:42;;;;;;;;;;;13.80;99.90;;;;;;5074846;28;19974;-65
2022/04/25 12:05:09;;;;;;;;;;;13.80;99.90;;;;;;5074162;28;19928;-65
2022/04/25 12:07:35;;;;;;;;;;;13.80;99.90;;;;;;5107405;28;19916;-65
2022/04/25 12:15:42;;;;;;;;;;;13.90;99.90;;;;;;5073890;28;20363;-63
2022/04/25 12:18:18;;;;;;;;;;;13.80;99.90;;;;;;5074479;28;19916;-62
2022/04/25 12:20:45;;;;;;;;;;;13.80;99.90;;;;;;5106751;28;20325;-66
2022/04/25 12:23:19;;;;;;;;;;;13.60;99.90;;;;;;5074181;28;19916;-65
2022/04/25 12:25:44;;;;;;;;;;;13.50;99.90;;;;;;5073542;28;20015;-60
2022/04/25 12:28:13;;;;;;;;;;;13.50;99.90;;;;;;5073992;28;20012;-63
2022/04/25 12:30:46;;;;;;;;;;;13.50;99.90;;;;;;5073980;28;19978;-60
2022/04/25 12:33:13;;;;;;;;;;;13.50;99.90;;;;;;5072839;28;19999;-61
2022/04/25 12:35:38;;;;;;;;;;;13.50;99.90;;;;;;5073456;28;20363;-60
2022/04/25 12:38:05;;;;;;;;;;;13.40;99.90;;;;;;5073225;28;19924;-61
2022/04/25 12:40:31;;;;;;;;;;;13.50;99.90;;;;;;5073343;28;19916;-61
2022/04/25 12:42:56;;;;;;;;;;;13.40;99.90;;;;;;5073252;28;19916;-63
2022/04/25 12:45:23;;;;;;;;;;;13.40;99.90;;;;;;5073559;28;19928;-63
2022/04/25 12:47:55;;;;;;;;;;;13.40;99.90;;;;;;5073883;28;19969;-63
2022/04/25 12:50:40;;;;;;;;;;;13.40;99.90;;;;;;5074134;28;19916;-63
2022/04/25 12:53:06;;;;;;;;;;;13.50;99.90;;;;;;5073644;28;19923;-63
2022/04/25 12:55:42;;;;;;;;;;;13.50;99.90;;;;;;5073399;28;20424;-62
2022/04/25 12:58:07;;;;;;;;;;;13.60;99.90;;;;;;5089656;28;19959;-63
2022/04/25 13:00:40;;;;;;;;;;;13.70;99.90;;;;;;5094105;28;19966;-64
2022/04/25 13:03:05;;;;;;;;;;;13.80;99.90;;;;;;5092152;28;19965;-64
2022/04/25 13:05:31;;;;;;;;;;;13.80;99.90;;;;;;5094176;28;19924;-64
2022/04/25 13:07:57;;;;;;;;;;;13.80;99.90;;;;;;5093203;28;19971;-64
2022/04/25 13:10:23;;;;;;;;;;;14.10;99.90;;;;;;5092162;28;20474;-65
2022/04/25 13:12:52;;;;;;;;;;;14.80;99.90;;;;;;5091718;28;19923;-64
2022/04/25 13:15:18;;;;;;;;;;;15.00;99.90;;;;;;5094208;28;19923;-63
2022/04/25 13:17:45;;;;;;;;;;;15.40;99.90;;;;;;5094150;28;19916;-63
2022/04/25 13:20:12;;;;;;;;;;;15.30;99.90;;;;;;5093844;28;19923;-63
2022/04/25 13:22:38;;;;;;;;;;;15.50;99.90;;;;;;5093370;28;19969;-64
2022/04/25 13:25:04;;;;;;;;;;;15.50;99.90;;;;;;5093380;28;19924;-64
2022/04/25 13:27:30;;;;;;;;;;;15.30;99.90;;;;;;5093286;28;19927;-64
2022/04/25 13:29:56;;;;;;;;;;;15.30;99.90;;;;;;5093770;28;19919;-64
2022/04/25 13:32:21;;;;;;;;;;;15.10;99.90;;;;;;5092386;28;19916;-64
2022/04/25 13:34:47;;;;;;;;;;;15.20;99.90;;;;;;5093166;28;19915;-63
2022/04/25 13:37:13;;;;;;;;;;;15.50;99.90;;;;;;5093430;28;19916;-63
2022/04/25 13:39:39;;;;;;;;;;;15.90;99.90;;;;;;5093401;28;19920;-64
2022/04/25 13:42:04;;;;;;;;;;;16.20;99.90;;;;;;5092964;28;20379;-63
2022/04/25 13:44:30;;;;;;;;;;;16.10;99.90;;;;;;5091730;28;19916;-65
2022/04/25 13:46:56;;;;;;;;;;;16.20;99.90;;;;;;5090895;28;19959;-64
2022/04/25 13:49:22;;;;;;;;;;;16.00;99.90;;;;;;5092979;28;19916;-63
2022/04/25 13:51:47;;;;;;;;;;;16.00;99.90;;;;;;5093133;28;19915;-63
2022/04/25 13:54:13;;;;;;;;;;;15.90;99.90;;;;;;5092717;28;19916;-63
2022/04/25 13:56:41;;;;;;;;;;;15.60;99.90;;;;;;5092831;28;19924;-63
2022/04/25 13:59:07;;;;;;;;;;;15.40;99.90;;;;;;5093201;28;20011;-64
2022/04/25 14:01:33;;;;;;;;;;;15.30;99.90;;;;;;5093057;28;19956;-63
2022/04/25 14:03:58;;;;;;;;;;;15.10;99.90;;;;;;5092772;28;20368;-64
2022/04/25 14:06:24;;;;;;;;;;;15.00;99.90;;;;;;5092769;28;19920;-63
2022/04/25 14:08:51;;;;;;;;;;;15.00;99.90;;;;;;5093019;28;20286;-63
2022/04/25 14:11:17;;;;;;;;;;;14.70;99.90;;;;;;5092646;28;19923;-63
2022/04/25 14:13:42;;;;;;;;;;;14.70;99.90;;;;;;5092303;28;19915;-63
2022/04/25 14:16:08;;;;;;;;;;;14.60;99.90;;;;;;5092917;28;19971;-63
2022/04/25 14:18:34;;;;;;;;;;;14.60;99.90;;;;;;5092485;28;20008;-64
2022/04/25 14:20:59;;;;;;;;;;;14.40;99.90;;;;;;5092586;28;19954;-64
2022/04/25 14:23:25;;;;;;;;;;;14.40;99.90;;;;;;5092612;28;19916;-63
2022/04/25 14:25:51;;;;;;;;;;;14.10;99.90;;;;;;5092352;28;19928;-64
2022/04/25 14:28:16;;;;;;;;;;;13.90;99.90;;;;;;5092671;28;19922;-64
2022/04/25 14:30:43;;;;;;;;;;;13.90;99.90;;;;;;5092041;28;20365;-65
2022/04/25 14:33:08;;;;;;;;;;;14.00;99.90;;;;;;5092107;28;20006;-65
2022/04/25 14:35:34;;;;;;;;;;;13.90;99.90;;;;;;5092079;28;19999;-64
2022/04/25 14:38:00;;;;;;;;;;;14.00;99.90;;;;;;5092431;28;19916;-64
2022/04/25 14:40:25;;;;;;;;;;;14.00;99.90;;;;;;5092263;28;19948;-65
2022/04/25 14:42:51;;;;;;;;;;;14.00;99.90;;;;;;5092289;28;19975;-65
2022/04/25 14:45:17;;;;;;;;;;;14.00;99.90;;;;;;5091994;28;20028;-65
2022/04/25 14:47:46;;;;;;;;;;;14.00;99.90;;;;;;5092056;28;19969;-65
2022/04/25 14:55:40;;;;;;;;;;;13.80;99.90;;;;;;5094313;28;19920;-64
2022/04/25 14:58:05;;;;;;;;;;;13.80;99.90;;;;;;5095722;28;19926;-64
2022/04/25 15:00:31;;;;;;;;;;;13.70;99.90;;;;;;5096272;28;19916;-63
2022/04/25 15:02:57;;;;;;;;;;;13.60;99.90;;;;;;5095972;28;19916;-62
2022/04/25 15:05:22;;;;;;;;;;;13.60;99.90;;;;;;5095892;28;19920;-64